createdAt,value
2023-04-09T00:02:02.154Z,52.25
2023-04-09T00:04:28.949Z,50.35
2023-04-09T00:06:55.552Z,50.17
2023-04-09T00:09:22.659Z,50.66
2023-04-09T00:11:49.243Z,51.43
2023-04-09T00:14:16.170Z,52.41
2023-04-09T00:16:42.885Z,51.86
2023-04-09T00:19:09.570Z,50.59
2023-04-09T00:21:36.271Z,51.14
2023-04-09T00:24:03.367Z,49.67
2023-04-09T00:26:31.354Z,49.27
2023-04-09T00:28:58.285Z,49.32
2023-04-09T00:31:24.945Z,50.38
2023-04-09T00:33:51.699Z,50.03
2023-04-09T00:36:18.399Z,49.69
2023-04-09T00:38:46.171Z,49.55
2023-04-09T00:41:12.819Z,49.13
2023-04-09T00:43:39.402Z,49.22
2023-04-09T00:46:06.765Z,49.54
2023-04-09T00:48:33.503Z,50.66
2023-04-09T00:51:00.392Z,50.64
2023-04-09T00:53:27.060Z,49.32
2023-04-09T00:55:56.834Z,49.17
2023-04-09T00:58:23.540Z,48.96
2023-04-09T01:00:50.239Z,48.09
2023-04-09T01:03:17.180Z,47.57
2023-04-09T01:05:43.698Z,48.87
2023-04-09T01:08:42.492Z,48.15
2023-04-09T01:11:31.491Z,48.38
2023-04-09T01:14:08.667Z,48.45
2023-04-09T01:16:37.851Z,47.86
2023-04-09T01:19:22.085Z,47.05
2023-04-09T01:21:49.413Z,47.66
2023-04-09T01:24:16.629Z,48.74
2023-04-09T01:27:09.062Z,47.90
2023-04-09T01:29:51.577Z,47.14
2023-04-09T01:32:21.084Z,47.55
2023-04-09T01:34:48.552Z,47.94
2023-04-09T01:37:16.863Z,49.07
2023-04-09T01:39:44.122Z,48.79
2023-04-09T01:42:12.492Z,47.51
2023-04-09T01:44:40.231Z,47.24
2023-04-09T01:47:09.459Z,47.72
2023-04-09T01:49:38.375Z,49.45
2023-04-09T01:52:05.263Z,50.70
2023-04-09T01:54:31.937Z,50.10
2023-04-09T01:57:00.739Z,49.93
2023-04-09T01:59:27.563Z,48.11
2023-04-09T02:02:08.637Z,48.80
2023-04-09T02:04:46.940Z,49.79
2023-04-09T02:07:19.717Z,49.20
2023-04-09T02:09:48.724Z,48.88
2023-04-09T02:12:18.495Z,48.38
2023-04-09T02:14:51.224Z,47.92
2023-04-09T02:17:18.797Z,48.06
2023-04-09T02:19:47.770Z,47.80
2023-04-09T02:22:16.376Z,47.15
2023-04-09T02:24:45.886Z,47.08
2023-04-09T02:27:12.568Z,46.84
2023-04-09T02:29:42.494Z,46.48
2023-04-09T02:32:09.314Z,46.19
2023-04-09T02:34:35.952Z,45.26
2023-04-09T02:37:03.846Z,45.73
2023-04-09T02:39:30.549Z,45.97
2023-04-09T02:41:57.973Z,46.64
2023-04-09T02:44:26.973Z,46.88
2023-04-09T02:46:53.955Z,48.61
2023-04-09T02:49:20.537Z,49.68
2023-04-09T02:51:47.461Z,50.45
2023-04-09T02:54:14.166Z,50.26
2023-04-09T02:56:40.798Z,49.93
2023-04-09T02:59:07.519Z,52.85
2023-04-09T03:01:35.000Z,52.92
2023-04-09T03:04:02.035Z,53.73
2023-04-09T03:06:28.887Z,52.80
2023-04-09T03:08:55.570Z,52.17
2023-04-09T03:11:23.048Z,50.68
2023-04-09T03:13:49.823Z,50.66
2023-04-09T03:16:16.499Z,50.27
2023-04-09T03:18:43.113Z,49.75
2023-04-09T03:21:10.576Z,50.05
2023-04-09T03:23:45.027Z,51.01
2023-04-09T03:26:11.819Z,50.92
2023-04-09T03:28:44.675Z,50.48
2023-04-09T03:31:11.237Z,50.80
2023-04-09T03:33:40.453Z,50.57
2023-04-09T03:36:09.002Z,50.97
2023-04-09T03:38:49.982Z,51.89
2023-04-09T03:41:28.836Z,52.04
2023-04-09T03:43:57.742Z,51.46
2023-04-09T03:46:28.546Z,50.92
2023-04-09T03:48:57.570Z,50.32
2023-04-09T03:51:32.558Z,51.88
2023-04-09T03:54:01.279Z,50.96
2023-04-09T03:56:28.792Z,52.51
2023-04-09T03:58:56.044Z,52.43
2023-04-09T04:01:31.710Z,52.32
2023-04-09T04:04:01.003Z,51.36
2023-04-09T04:06:37.770Z,50.61
2023-04-09T04:09:23.078Z,51.34
2023-04-09T04:11:56.289Z,50.90
2023-04-09T04:14:26.922Z,51.21
2023-04-09T04:17:00.145Z,51.28
2023-04-09T04:19:30.660Z,50.57
2023-04-09T04:21:58.011Z,50.45
2023-04-09T04:24:24.794Z,51.85
2023-04-09T04:26:51.425Z,51.94
2023-04-09T04:29:20.121Z,52.16
2023-04-09T04:32:09.770Z,51.74
2023-04-09T04:34:37.765Z,51.70
2023-04-09T04:37:13.966Z,50.78
2023-04-09T04:39:40.819Z,50.95
2023-04-09T04:42:11.498Z,50.33
2023-04-09T04:44:38.307Z,49.95
2023-04-09T04:47:12.840Z,50.25
2023-04-09T04:49:40.027Z,50.71
2023-04-09T04:52:08.006Z,50.99
2023-04-09T04:54:36.842Z,51.69
2023-04-09T04:57:03.925Z,50.84
2023-04-09T04:59:40.885Z,51.41
2023-04-09T05:02:10.429Z,51.88
2023-04-09T05:05:09.620Z,50.80
2023-04-09T05:07:44.805Z,50.96
2023-04-09T05:10:11.622Z,51.58
2023-04-09T05:12:41.571Z,51.53
2023-04-09T05:15:10.334Z,51.21
2023-04-09T05:17:38.305Z,50.82
2023-04-09T05:20:08.025Z,51.26
2023-04-09T05:22:52.321Z,50.45
2023-04-09T05:25:34.378Z,49.88
2023-04-09T05:28:02.627Z,49.72
2023-04-09T05:30:31.144Z,49.64
2023-04-09T05:33:01.286Z,48.95
2023-04-09T05:35:28.537Z,48.87
2023-04-09T05:37:56.035Z,49.02
2023-04-09T05:40:22.949Z,49.17
2023-04-09T05:42:50.871Z,49.10
2023-04-09T05:45:37.138Z,49.26
2023-04-09T05:48:04.065Z,49.92
2023-04-09T05:50:34.345Z,49.38
2023-04-09T05:53:05.498Z,52.78
2023-04-09T05:55:38.404Z,51.30
2023-04-09T05:58:05.915Z,49.67
2023-04-09T06:00:33.001Z,50.43
2023-04-09T06:03:00.438Z,50.95
2023-04-09T06:05:28.327Z,50.42
2023-04-09T06:07:55.482Z,49.85
2023-04-09T06:10:22.115Z,49.18
2023-04-09T06:12:49.114Z,47.89
2023-04-09T06:15:16.123Z,47.80
2023-04-09T06:17:42.708Z,46.81
2023-04-09T06:20:09.784Z,45.01
2023-04-09T06:22:36.710Z,44.55
2023-04-09T06:25:03.676Z,44.68
2023-04-09T06:27:30.883Z,44.86
2023-04-09T06:29:57.446Z,43.93
2023-04-09T06:32:24.365Z,44.34
2023-04-09T06:34:51.213Z,43.51
2023-04-09T06:37:18.038Z,45.08
2023-04-09T06:39:54.199Z,45.26
2023-04-09T06:42:26.881Z,46.57
2023-04-09T06:45:08.882Z,47.20
2023-04-09T06:47:37.141Z,46.66
2023-04-09T06:50:04.225Z,48.58
2023-04-09T06:52:30.850Z,48.18
2023-04-09T06:54:57.415Z,47.58
2023-04-09T06:57:23.975Z,45.59
2023-04-09T06:59:50.585Z,46.00
2023-04-09T07:02:17.669Z,46.05
2023-04-09T07:04:44.802Z,48.06
2023-04-09T07:07:12.771Z,47.91
2023-04-09T07:09:39.637Z,46.90
2023-04-09T07:12:06.472Z,47.93
2023-04-09T07:14:33.245Z,48.02
2023-04-09T07:17:02.356Z,47.63
2023-04-09T07:19:31.048Z,47.60
2023-04-09T07:21:57.764Z,46.19
2023-04-09T07:24:24.505Z,45.96
2023-04-09T07:26:52.508Z,45.99
2023-04-09T07:29:20.717Z,46.24
2023-04-09T07:31:47.774Z,45.26
2023-04-09T07:34:14.641Z,43.92
2023-04-09T07:36:42.855Z,43.96
2023-04-09T07:39:09.672Z,45.00
2023-04-09T07:41:37.539Z,45.83
2023-04-09T07:44:06.289Z,45.15
2023-04-09T07:46:33.309Z,45.38
2023-04-09T07:49:02.436Z,44.76
2023-04-09T07:51:29.073Z,45.70
2023-04-09T07:53:55.826Z,45.40
2023-04-09T07:56:22.899Z,44.47
2023-04-09T07:58:50.741Z,44.93
2023-04-09T08:01:17.650Z,45.14
2023-04-09T08:03:46.561Z,44.49
2023-04-09T08:06:13.624Z,44.12
2023-04-09T08:08:40.447Z,44.60
2023-04-09T08:11:07.633Z,44.94
2023-04-09T08:13:34.270Z,43.87
2023-04-09T08:16:02.389Z,43.81
2023-04-09T08:18:31.266Z,43.48
2023-04-09T08:20:58.060Z,44.30
2023-04-09T08:23:24.707Z,45.01
2023-04-09T08:25:51.327Z,44.10
2023-04-09T08:28:18.347Z,44.33
2023-04-09T08:30:44.990Z,42.45
2023-04-09T08:33:11.613Z,40.52
2023-04-09T08:35:41.195Z,40.61
2023-04-09T08:38:07.815Z,41.08
2023-04-09T08:40:36.111Z,41.43
2023-04-09T08:43:06.363Z,41.19
2023-04-09T08:45:33.296Z,40.43
2023-04-09T08:48:03.665Z,40.75
2023-04-09T08:50:36.619Z,39.88
2023-04-09T08:53:04.636Z,38.95
2023-04-09T08:55:31.540Z,38.97
2023-04-09T08:57:59.311Z,39.98
2023-04-09T09:00:28.608Z,40.44
2023-04-09T09:03:13.273Z,40.10
2023-04-09T09:05:45.358Z,41.78
2023-04-09T09:08:26.750Z,41.20
2023-04-09T09:10:53.437Z,40.11
2023-04-09T09:13:30.906Z,40.16
2023-04-09T09:16:14.846Z,39.01
2023-04-09T09:18:44.034Z,38.04
2023-04-09T09:21:15.751Z,39.79
2023-04-09T09:23:43.259Z,39.14
2023-04-09T09:26:13.205Z,41.25
2023-04-09T09:28:40.585Z,38.84
2023-04-09T09:31:12.006Z,39.72
2023-04-09T09:33:39.724Z,39.44
2023-04-09T09:36:06.744Z,41.14
2023-04-09T09:38:50.820Z,41.67
2023-04-09T09:41:18.615Z,43.00
2023-04-09T09:43:45.801Z,41.54
2023-04-09T09:46:12.720Z,41.86
2023-04-09T09:48:39.600Z,42.58
2023-04-09T09:51:11.152Z,42.44
2023-04-09T09:53:39.261Z,43.00
2023-04-09T09:56:07.353Z,42.80
2023-04-09T09:58:41.290Z,42.53
2023-04-09T10:01:11.293Z,43.17
2023-04-09T10:03:39.781Z,42.67
2023-04-09T10:06:07.827Z,43.10
2023-04-09T10:08:36.003Z,43.21
2023-04-09T10:11:04.090Z,41.83
2023-04-09T10:13:52.834Z,41.31
2023-04-09T10:16:23.124Z,40.25
2023-04-09T10:18:50.257Z,40.06
2023-04-09T10:21:47.791Z,39.33
2023-04-09T10:24:16.055Z,40.44
2023-04-09T10:26:46.995Z,39.91
2023-04-09T10:29:15.679Z,40.05
2023-04-09T10:31:52.290Z,38.31
2023-04-09T10:34:26.899Z,39.45
2023-04-09T10:36:57.451Z,37.94
2023-04-09T10:39:29.906Z,37.57
2023-04-09T10:41:58.225Z,38.39
2023-04-09T10:44:31.406Z,38.50
2023-04-09T10:46:58.840Z,39.04
2023-04-09T10:49:27.120Z,38.90
2023-04-09T10:52:13.835Z,39.32
2023-04-09T10:54:46.320Z,38.47
2023-04-09T10:57:24.309Z,38.97
2023-04-09T10:59:55.377Z,37.35
2023-04-09T11:02:38.537Z,36.93
2023-04-09T11:05:17.693Z,37.87
2023-04-09T11:07:48.177Z,36.12
2023-04-09T11:10:15.026Z,35.17
2023-04-09T11:12:42.926Z,35.65
2023-04-09T11:15:19.840Z,36.39
2023-04-09T11:17:47.969Z,36.41
2023-04-09T11:20:16.528Z,36.64
2023-04-09T11:22:43.240Z,37.08
2023-04-09T11:25:09.938Z,37.21
2023-04-09T11:27:38.990Z,37.52
2023-04-09T11:30:06.414Z,37.43
2023-04-09T11:32:34.314Z,37.56
2023-04-09T11:35:01.080Z,35.54
2023-04-09T11:37:27.922Z,33.78
2023-04-09T11:39:57.348Z,33.16
2023-04-09T11:42:27.592Z,34.95
2023-04-09T11:44:54.376Z,35.96
2023-04-09T11:47:21.961Z,35.63
2023-04-09T11:49:51.571Z,35.58
2023-04-09T11:52:19.668Z,35.86
2023-04-09T11:54:49.869Z,36.30
2023-04-09T11:57:17.422Z,36.52
2023-04-09T11:59:44.357Z,36.01
2023-04-09T12:02:11.070Z,35.61
2023-04-09T12:04:37.970Z,36.21
2023-04-09T12:07:15.153Z,36.23
2023-04-09T12:09:49.215Z,36.01
2023-04-09T12:12:23.901Z,36.36
2023-04-09T12:14:53.761Z,36.23
2023-04-09T12:17:21.245Z,36.71
2023-04-09T12:19:49.091Z,36.80
2023-04-09T12:22:16.052Z,35.75
2023-04-09T12:24:42.706Z,35.51
2023-04-09T12:27:10.853Z,34.88
2023-04-09T12:29:37.493Z,34.61
2023-04-09T12:32:05.060Z,34.01
2023-04-09T12:34:32.200Z,33.88
2023-04-09T12:36:59.482Z,33.92
2023-04-09T12:39:26.481Z,34.41
2023-04-09T12:41:54.369Z,34.32
2023-04-09T12:44:21.065Z,34.35
2023-04-09T12:46:47.857Z,33.68
2023-04-09T12:49:14.539Z,33.72
2023-04-09T12:51:41.602Z,31.97
2023-04-09T12:54:08.429Z,32.80
2023-04-09T12:56:35.284Z,33.70
2023-04-09T12:59:02.006Z,33.99
2023-04-09T13:01:28.955Z,33.60
2023-04-09T13:03:55.799Z,34.44
2023-04-09T13:06:22.967Z,35.45
2023-04-09T13:08:49.809Z,34.88
2023-04-09T13:11:16.618Z,34.87
2023-04-09T13:13:43.269Z,34.20
2023-04-09T13:16:09.812Z,34.62
2023-04-09T13:18:37.479Z,34.53
2023-04-09T13:21:04.166Z,33.14
2023-04-09T13:23:30.759Z,33.30
2023-04-09T13:25:57.401Z,32.56
2023-04-09T13:28:24.350Z,33.09
2023-04-09T13:30:51.369Z,32.94
2023-04-09T13:33:18.028Z,33.75
2023-04-09T13:35:45.874Z,32.67
2023-04-09T13:38:14.180Z,32.56
2023-04-09T13:40:41.667Z,32.65
2023-04-09T13:43:08.595Z,32.69
2023-04-09T13:45:35.291Z,32.60
2023-04-09T13:48:02.003Z,32.49
2023-04-09T13:50:29.383Z,33.00
2023-04-09T13:52:56.353Z,33.01
2023-04-09T13:55:22.923Z,33.19
2023-04-09T13:57:50.655Z,32.74
2023-04-09T14:00:17.468Z,31.90
2023-04-09T14:02:44.302Z,32.25
2023-04-09T14:05:11.127Z,32.49
2023-04-09T14:07:37.856Z,32.64
2023-04-09T14:10:04.969Z,33.04
2023-04-09T14:12:32.327Z,32.91
2023-04-09T14:14:59.169Z,32.82
2023-04-09T14:17:26.420Z,33.29
2023-04-09T14:19:52.999Z,33.27
2023-04-09T14:22:19.815Z,32.55
2023-04-09T14:24:47.396Z,32.76
2023-04-09T14:27:14.109Z,33.05
2023-04-09T14:29:40.665Z,32.50
2023-04-09T14:32:07.815Z,31.82
2023-04-09T14:34:34.866Z,30.29
2023-04-09T14:37:01.423Z,31.30
2023-04-09T14:39:28.287Z,30.83
2023-04-09T14:41:57.125Z,30.19
2023-04-09T14:44:26.712Z,30.96
2023-04-09T14:46:55.237Z,30.02
2023-04-09T14:49:23.314Z,31.38
2023-04-09T14:51:50.070Z,30.30
2023-04-09T14:54:16.758Z,30.57
2023-04-09T14:56:43.377Z,31.88
2023-04-09T14:59:10.257Z,32.33
2023-04-09T15:01:37.093Z,32.87
2023-04-09T15:04:04.059Z,33.00
2023-04-09T15:06:32.285Z,32.74
2023-04-09T15:08:58.993Z,32.77
2023-04-09T15:11:30.461Z,32.97
2023-04-09T15:13:58.060Z,32.69
2023-04-09T15:16:28.477Z,33.15
2023-04-09T15:19:05.258Z,33.02
2023-04-09T15:21:33.428Z,32.91
2023-04-09T15:24:00.501Z,32.19
2023-04-09T15:26:27.494Z,32.45
2023-04-09T15:29:07.315Z,33.45
2023-04-09T15:31:34.629Z,33.72
2023-04-09T15:34:01.590Z,33.84
2023-04-09T15:36:32.507Z,33.18
2023-04-09T15:38:59.181Z,32.97
2023-04-09T15:41:26.874Z,33.08
2023-04-09T15:43:53.573Z,34.18
2023-04-09T15:46:21.228Z,33.35
2023-04-09T15:48:48.384Z,34.60
2023-04-09T15:51:16.659Z,34.73
2023-04-09T15:53:43.408Z,33.71
2023-04-09T15:56:15.182Z,33.92
2023-04-09T15:58:43.324Z,33.58
2023-04-09T16:01:10.593Z,33.11
2023-04-09T16:03:41.000Z,33.69
2023-04-09T16:06:14.488Z,33.07
2023-04-09T16:08:41.236Z,32.74
2023-04-09T16:11:08.229Z,33.32
2023-04-09T16:13:35.391Z,33.54
2023-04-09T16:16:01.913Z,33.85
2023-04-09T16:18:28.734Z,33.71
2023-04-09T16:20:57.436Z,33.83
2023-04-09T16:23:26.955Z,33.51
2023-04-09T16:25:53.623Z,34.25
2023-04-09T16:28:22.556Z,33.92
2023-04-09T16:30:55.522Z,34.09
2023-04-09T16:33:22.117Z,34.16
2023-04-09T16:35:48.936Z,34.68
2023-04-09T16:38:15.654Z,34.74
2023-04-09T16:40:43.594Z,34.77
2023-04-09T16:43:10.332Z,34.67
2023-04-09T16:45:37.079Z,34.94
2023-04-09T16:48:06.303Z,34.71
2023-04-09T16:50:33.098Z,34.64
2023-04-09T16:53:01.100Z,34.52
2023-04-09T16:55:29.159Z,34.94
2023-04-09T16:57:56.767Z,34.93
2023-04-09T17:00:23.637Z,35.20
2023-04-09T17:02:51.428Z,35.30
2023-04-09T17:05:19.685Z,35.60
2023-04-09T17:07:46.277Z,35.18
2023-04-09T17:10:13.078Z,35.20
2023-04-09T17:12:39.922Z,36.93
2023-04-09T17:15:07.658Z,35.35
2023-04-09T17:17:34.753Z,35.82
2023-04-09T17:20:01.645Z,35.20
2023-04-09T17:22:28.343Z,35.64
2023-04-09T17:24:54.947Z,35.75
2023-04-09T17:27:21.820Z,35.50
2023-04-09T17:29:48.422Z,35.84
2023-04-09T17:32:15.445Z,36.15
2023-04-09T17:34:43.547Z,36.51
2023-04-09T17:37:10.062Z,36.12
2023-04-09T17:39:37.511Z,37.63
2023-04-09T17:42:05.414Z,37.44
2023-04-09T17:44:35.196Z,36.68
2023-04-09T17:47:05.022Z,37.51
2023-04-09T17:49:32.406Z,36.99
2023-04-09T17:51:59.866Z,36.85
2023-04-09T17:54:26.423Z,37.14
2023-04-09T17:56:53.534Z,37.12
2023-04-09T17:59:20.666Z,37.99
2023-04-09T18:01:47.486Z,37.84
2023-04-09T18:04:15.156Z,37.89
2023-04-09T18:06:42.146Z,38.24
2023-04-09T18:09:08.795Z,38.11
2023-04-09T18:11:35.561Z,38.33
2023-04-09T18:14:07.739Z,38.33
2023-04-09T18:16:38.093Z,38.27
2023-04-09T18:19:08.366Z,38.72
2023-04-09T18:21:37.971Z,38.76
2023-04-09T18:24:05.498Z,38.43
2023-04-09T18:26:33.962Z,38.69
2023-04-09T18:29:01.818Z,38.89
2023-04-09T18:31:29.229Z,38.68
2023-04-09T18:33:56.188Z,38.72
2023-04-09T18:36:23.089Z,38.77
2023-04-09T18:38:49.916Z,39.09
2023-04-09T18:41:23.817Z,39.29
2023-04-09T18:43:51.878Z,39.30
2023-04-09T18:46:18.875Z,39.26
2023-04-09T18:48:47.055Z,39.66
2023-04-09T18:51:14.865Z,40.30
2023-04-09T18:53:42.170Z,39.71
2023-04-09T18:56:09.005Z,39.92
2023-04-09T18:58:36.532Z,39.88
2023-04-09T19:01:12.800Z,40.67
2023-04-09T19:03:40.589Z,40.66
2023-04-09T19:06:14.977Z,40.99
2023-04-09T19:08:41.904Z,41.17
2023-04-09T19:11:08.700Z,41.18
2023-04-09T19:13:36.871Z,41.04
2023-04-09T19:16:04.241Z,41.29
2023-04-09T19:18:31.976Z,41.52
2023-04-09T19:20:58.565Z,41.62
2023-04-09T19:23:27.742Z,41.24
2023-04-09T19:25:55.888Z,41.11
2023-04-09T19:28:23.298Z,41.11
2023-04-09T19:30:52.807Z,41.42
2023-04-09T19:33:27.084Z,41.57
2023-04-09T19:35:55.744Z,41.67
2023-04-09T19:38:22.382Z,41.31
2023-04-09T19:40:49.647Z,41.37
2023-04-09T19:43:16.463Z,41.54
2023-04-09T19:45:43.536Z,41.53
2023-04-09T19:48:10.580Z,41.58
2023-04-09T19:50:38.852Z,41.57
2023-04-09T19:53:06.250Z,41.36
2023-04-09T19:55:34.046Z,42.12
2023-04-09T19:58:00.839Z,41.92
2023-04-09T20:00:28.670Z,41.52
2023-04-09T20:02:55.686Z,42.13
2023-04-09T20:05:23.378Z,41.90
2023-04-09T20:07:52.610Z,42.00
2023-04-09T20:10:19.681Z,42.45
2023-04-09T20:12:50.818Z,42.63
2023-04-09T20:15:20.048Z,42.23
2023-04-09T20:17:50.833Z,42.19
2023-04-09T20:20:20.866Z,42.06
2023-04-09T20:22:55.663Z,41.77
2023-04-09T20:25:24.155Z,41.99
2023-04-09T20:27:54.623Z,42.41
2023-04-09T20:30:21.522Z,42.70
2023-04-09T20:32:49.496Z,42.36
2023-04-09T20:35:16.420Z,42.55
2023-04-09T20:37:43.119Z,42.47
2023-04-09T20:40:11.913Z,42.73
2023-04-09T20:42:40.474Z,43.07
2023-04-09T20:45:08.178Z,43.23
2023-04-09T20:47:34.959Z,43.28
2023-04-09T20:50:02.118Z,43.54
2023-04-09T20:52:29.014Z,43.34
2023-04-09T20:54:57.607Z,43.06
2023-04-09T20:57:24.343Z,43.21
2023-04-09T20:59:50.965Z,43.30
2023-04-09T21:02:17.840Z,43.13
2023-04-09T21:04:44.664Z,43.08
2023-04-09T21:07:11.513Z,43.55
2023-04-09T21:09:38.359Z,42.85
2023-04-09T21:12:04.942Z,42.45
2023-04-09T21:14:31.865Z,42.88
2023-04-09T21:16:58.814Z,42.74
2023-04-09T21:19:25.775Z,43.12
2023-04-09T21:21:52.464Z,43.49
2023-04-09T21:24:19.080Z,43.39
2023-04-09T21:26:51.508Z,43.62
2023-04-09T21:29:21.152Z,43.52
2023-04-09T21:31:49.336Z,43.66
2023-04-09T21:34:16.341Z,43.43
2023-04-09T21:36:44.987Z,43.83
2023-04-09T21:39:12.288Z,43.85
2023-04-09T21:41:39.151Z,43.71
2023-04-09T21:44:08.841Z,44.10
2023-04-09T21:46:37.270Z,44.17
2023-04-09T21:49:04.482Z,44.22
2023-04-09T21:51:33.015Z,44.13
2023-04-09T21:54:07.666Z,43.48
2023-04-09T21:56:35.620Z,43.90
2023-04-09T21:59:02.635Z,43.63
2023-04-09T22:01:34.458Z,43.88
2023-04-09T22:04:03.025Z,44.08
2023-04-09T22:06:29.835Z,44.44
2023-04-09T22:08:57.768Z,44.43
2023-04-09T22:11:29.655Z,44.04
2023-04-09T22:13:57.535Z,44.57
2023-04-09T22:16:24.961Z,44.80
2023-04-09T22:18:52.934Z,44.53
2023-04-09T22:21:19.767Z,44.62
2023-04-09T22:23:46.276Z,44.32
2023-04-09T22:26:13.051Z,44.46
2023-04-09T22:28:39.983Z,44.50
2023-04-09T22:31:09.779Z,44.27
2023-04-09T22:33:36.550Z,44.20
2023-04-09T22:36:03.253Z,44.98
2023-04-09T22:38:30.624Z,44.19
2023-04-09T22:40:57.166Z,44.71
2023-04-09T22:43:24.000Z,45.81
2023-04-09T22:45:52.330Z,46.37
2023-04-09T22:48:19.948Z,45.14
2023-04-09T22:50:47.623Z,44.86
2023-04-09T22:53:18.728Z,45.54
2023-04-09T22:55:52.691Z,45.49
2023-04-09T22:58:19.255Z,45.43
2023-04-09T23:00:47.205Z,46.12
2023-04-09T23:03:14.146Z,45.16
2023-04-09T23:05:41.258Z,45.52
2023-04-09T23:08:08.017Z,45.29
2023-04-09T23:10:34.972Z,45.97
2023-04-09T23:13:02.114Z,45.72
2023-04-09T23:15:28.823Z,45.97
2023-04-09T23:17:56.162Z,45.57
2023-04-09T23:20:23.183Z,45.62
2023-04-09T23:22:50.286Z,45.66
2023-04-09T23:25:17.614Z,46.07
2023-04-09T23:27:44.772Z,46.38
2023-04-09T23:30:16.558Z,46.91
2023-04-09T23:32:44.778Z,46.61
2023-04-09T23:35:11.959Z,46.97
2023-04-09T23:37:39.333Z,46.35
2023-04-09T23:40:07.499Z,46.02
2023-04-09T23:42:34.147Z,46.57
2023-04-09T23:45:04.134Z,47.13
2023-04-09T23:47:36.515Z,48.05
2023-04-09T23:50:06.484Z,47.29
2023-04-09T23:52:37.791Z,48.16
2023-04-09T23:55:08.702Z,48.30
2023-04-09T23:57:35.524Z,48.18
